sensor_id;sensor_type;location;lat;lon;timestamp;P1;durP1;ratioP1;P2;durP2;ratioP2
80854;SDS011;70272;49.222;-122.892;2023-09-19T00:01:42;3.15;;;1.55;;
80854;SDS011;70272;49.222;-122.892;2023-09-19T00:04:12;3.42;;;1.63;;
80854;SDS011;70272;49.222;-122.892;2023-09-19T00:06:40;2.85;;;1.50;;
80854;SDS011;70272;49.222;-122.892;2023-09-19T00:09:06;2.30;;;1.33;;
80854;SDS011;70272;49.222;-122.892;2023-09-19T00:11:36;2.80;;;1.50;;
80854;SDS011;70272;49.222;-122.892;2023-09-19T00:14:03;2.50;;;1.50;;
80854;SDS011;70272;49.222;-122.892;2023-09-19T00:16:34;2.83;;;1.50;;
80854;SDS011;70272;49.222;-122.892;2023-09-19T00:19:01;2.90;;;1.35;;
80854;SDS011;70272;49.222;-122.892;2023-09-19T00:21:28;2.63;;;1.23;;
80854;SDS011;70272;49.222;-122.892;2023-09-19T00:23:57;2.10;;;1.00;;
80854;SDS011;70272;49.222;-122.892;2023-09-19T00:26:23;2.20;;;1.20;;
80854;SDS011;70272;49.222;-122.892;2023-09-19T00:28:52;2.75;;;1.52;;
80854;SDS011;70272;49.222;-122.892;2023-09-19T00:31:18;2.50;;;1.38;;
80854;SDS011;70272;49.222;-122.892;2023-09-19T00:33:44;3.75;;;1.40;;
80854;SDS011;70272;49.222;-122.892;2023-09-19T00:36:11;2.70;;;1.20;;
80854;SDS011;70272;49.222;-122.892;2023-09-19T00:38:37;2.28;;;1.20;;
80854;SDS011;70272;49.222;-122.892;2023-09-19T00:41:03;2.92;;;1.48;;
80854;SDS011;70272;49.222;-122.892;2023-09-19T00:43:29;4.03;;;1.48;;
80854;SDS011;70272;49.222;-122.892;2023-09-19T00:45:59;2.90;;;1.70;;
80854;SDS011;70272;49.222;-122.892;2023-09-19T00:48:28;3.45;;;1.58;;
80854;SDS011;70272;49.222;-122.892;2023-09-19T00:50:55;3.60;;;1.50;;
80854;SDS011;70272;49.222;-122.892;2023-09-19T00:53:25;2.38;;;1.30;;
80854;SDS011;70272;49.222;-122.892;2023-09-19T00:55:52;3.55;;;1.45;;
80854;SDS011;70272;49.222;-122.892;2023-09-19T00:58:18;2.60;;;1.55;;
80854;SDS011;70272;49.222;-122.892;2023-09-19T01:00:46;3.63;;;1.50;;
80854;SDS011;70272;49.222;-122.892;2023-09-19T01:03:13;3.10;;;1.70;;
80854;SDS011;70272;49.222;-122.892;2023-09-19T01:05:40;2.00;;;1.33;;
80854;SDS011;70272;49.222;-122.892;2023-09-19T01:08:06;2.70;;;1.30;;
80854;SDS011;70272;49.222;-122.892;2023-09-19T01:10:32;4.35;;;1.60;;
80854;SDS011;70272;49.222;-122.892;2023-09-19T01:32:03;2.25;;;1.33;;
80854;SDS011;70272;49.222;-122.892;2023-09-19T01:34:44;3.83;;;1.73;;
80854;SDS011;70272;49.222;-122.892;2023-09-19T01:37:12;3.88;;;1.52;;
80854;SDS011;70272;49.222;-122.892;2023-09-19T01:39:49;2.97;;;1.67;;
80854;SDS011;70272;49.222;-122.892;2023-09-19T01:42:21;4.03;;;1.80;;
80854;SDS011;70272;49.222;-122.892;2023-09-19T01:45:11;3.03;;;1.42;;
80854;SDS011;70272;49.222;-122.892;2023-09-19T01:47:48;3.00;;;1.50;;
80854;SDS011;70272;49.222;-122.892;2023-09-19T01:50:34;4.85;;;1.60;;
80854;SDS011;70272;49.222;-122.892;2023-09-19T01:53:23;2.85;;;1.30;;
80854;SDS011;70272;49.222;-122.892;2023-09-19T01:55:55;3.78;;;1.50;;
80854;SDS011;70272;49.222;-122.892;2023-09-19T02:01:04;2.42;;;1.40;;
80854;SDS011;70272;49.222;-122.892;2023-09-19T02:03:31;3.70;;;1.88;;
80854;SDS011;70272;49.222;-122.892;2023-09-19T02:05:59;2.50;;;1.25;;
80854;SDS011;70272;49.222;-122.892;2023-09-19T02:08:26;2.92;;;1.45;;
80854;SDS011;70272;49.222;-122.892;2023-09-19T02:10:52;3.33;;;1.33;;
80854;SDS011;70272;49.222;-122.892;2023-09-19T02:13:19;3.25;;;1.48;;
80854;SDS011;70272;49.222;-122.892;2023-09-19T02:15:46;3.38;;;1.70;;
80854;SDS011;70272;49.222;-122.892;2023-09-19T02:18:13;3.72;;;1.77;;
80854;SDS011;70272;49.222;-122.892;2023-09-19T02:20:40;2.83;;;1.60;;
80854;SDS011;70272;49.222;-122.892;2023-09-19T02:23:07;3.78;;;2.17;;
80854;SDS011;70272;49.222;-122.892;2023-09-19T02:25:34;4.22;;;1.85;;
80854;SDS011;70272;49.222;-122.892;2023-09-19T02:28:05;4.03;;;1.85;;
80854;SDS011;70272;49.222;-122.892;2023-09-19T02:30:34;2.88;;;1.50;;
80854;SDS011;70272;49.222;-122.892;2023-09-19T02:33:01;3.50;;;1.50;;
80854;SDS011;70272;49.222;-122.892;2023-09-19T02:35:28;4.72;;;1.60;;
80854;SDS011;70272;49.222;-122.892;2023-09-19T02:38:00;2.05;;;1.50;;
80854;SDS011;70272;49.222;-122.892;2023-09-19T02:40:27;4.43;;;1.90;;
80854;SDS011;70272;49.222;-122.892;2023-09-19T02:42:54;4.82;;;1.60;;
80854;SDS011;70272;49.222;-122.892;2023-09-19T02:45:21;4.15;;;1.70;;
80854;SDS011;70272;49.222;-122.892;2023-09-19T02:47:48;3.42;;;1.45;;
80854;SDS011;70272;49.222;-122.892;2023-09-19T02:50:15;5.00;;;1.55;;
80854;SDS011;70272;49.222;-122.892;2023-09-19T02:52:42;2.83;;;1.88;;
80854;SDS011;70272;49.222;-122.892;2023-09-19T02:55:09;2.45;;;1.42;;
80854;SDS011;70272;49.222;-122.892;2023-09-19T02:57:37;3.20;;;1.60;;
80854;SDS011;70272;49.222;-122.892;2023-09-19T03:00:09;3.80;;;1.75;;
80854;SDS011;70272;49.222;-122.892;2023-09-19T03:02:36;2.58;;;1.35;;
80854;SDS011;70272;49.222;-122.892;2023-09-19T03:05:03;2.83;;;1.30;;
80854;SDS011;70272;49.222;-122.892;2023-09-19T03:07:30;4.43;;;1.67;;
80854;SDS011;70272;49.222;-122.892;2023-09-19T03:09:57;5.28;;;1.77;;
80854;SDS011;70272;49.222;-122.892;2023-09-19T03:12:23;4.68;;;2.25;;
80854;SDS011;70272;49.222;-122.892;2023-09-19T03:14:49;3.88;;;1.60;;
80854;SDS011;70272;49.222;-122.892;2023-09-19T03:17:16;3.30;;;1.55;;
80854;SDS011;70272;49.222;-122.892;2023-09-19T03:19:42;4.47;;;1.65;;
80854;SDS011;70272;49.222;-122.892;2023-09-19T03:22:08;6.65;;;1.98;;
80854;SDS011;70272;49.222;-122.892;2023-09-19T03:24:34;4.85;;;1.85;;
80854;SDS011;70272;49.222;-122.892;2023-09-19T03:27:02;6.13;;;1.75;;
80854;SDS011;70272;49.222;-122.892;2023-09-19T03:29:28;4.35;;;1.92;;
80854;SDS011;70272;49.222;-122.892;2023-09-19T03:31:54;2.70;;;1.70;;
80854;SDS011;70272;49.222;-122.892;2023-09-19T03:34:21;3.40;;;1.55;;
80854;SDS011;70272;49.222;-122.892;2023-09-19T03:36:47;3.35;;;1.58;;
80854;SDS011;70272;49.222;-122.892;2023-09-19T03:39:13;4.07;;;1.67;;
80854;SDS011;70272;49.222;-122.892;2023-09-19T03:41:41;3.17;;;1.50;;
80854;SDS011;70272;49.222;-122.892;2023-09-19T03:44:07;2.78;;;1.40;;
80854;SDS011;70272;49.222;-122.892;2023-09-19T03:46:33;3.03;;;1.55;;
80854;SDS011;70272;49.222;-122.892;2023-09-19T03:49:01;4.38;;;1.80;;
80854;SDS011;70272;49.222;-122.892;2023-09-19T03:51:28;2.13;;;1.30;;
80854;SDS011;70272;49.222;-122.892;2023-09-19T03:53:54;3.28;;;1.35;;
80854;SDS011;70272;49.222;-122.892;2023-09-19T03:56:21;5.28;;;1.60;;
80854;SDS011;70272;49.222;-122.892;2023-09-19T03:58:47;2.58;;;1.50;;
80854;SDS011;70272;49.222;-122.892;2023-09-19T04:01:14;4.50;;;1.80;;
80854;SDS011;70272;49.222;-122.892;2023-09-19T04:03:42;3.58;;;2.15;;
80854;SDS011;70272;49.222;-122.892;2023-09-19T04:06:12;5.28;;;1.60;;
80854;SDS011;70272;49.222;-122.892;2023-09-19T04:08:39;2.88;;;1.65;;
80854;SDS011;70272;49.222;-122.892;2023-09-19T04:11:06;2.97;;;1.90;;
80854;SDS011;70272;49.222;-122.892;2023-09-19T04:13:32;2.15;;;1.40;;
80854;SDS011;70272;49.222;-122.892;2023-09-19T04:15:58;4.75;;;1.70;;
80854;SDS011;70272;49.222;-122.892;2023-09-19T04:18:25;2.13;;;1.48;;
80854;SDS011;70272;49.222;-122.892;2023-09-19T04:20:51;3.10;;;1.90;;
80854;SDS011;70272;49.222;-122.892;2023-09-19T04:23:19;4.13;;;1.77;;
80854;SDS011;70272;49.222;-122.892;2023-09-19T04:25:46;3.25;;;1.70;;
80854;SDS011;70272;49.222;-122.892;2023-09-19T04:28:13;5.38;;;1.85;;
80854;SDS011;70272;49.222;-122.892;2023-09-19T04:30:41;4.07;;;1.67;;
80854;SDS011;70272;49.222;-122.892;2023-09-19T04:33:07;4.57;;;1.92;;
80854;SDS011;70272;49.222;-122.892;2023-09-19T04:35:34;3.10;;;1.65;;
80854;SDS011;70272;49.222;-122.892;2023-09-19T04:38:00;3.72;;;1.50;;
80854;SDS011;70272;49.222;-122.892;2023-09-19T04:40:28;4.10;;;1.90;;
80854;SDS011;70272;49.222;-122.892;2023-09-19T04:42:55;4.93;;;1.60;;
80854;SDS011;70272;49.222;-122.892;2023-09-19T04:45:25;4.75;;;2.08;;
80854;SDS011;70272;49.222;-122.892;2023-09-19T04:47:52;7.22;;;2.00;;
80854;SDS011;70272;49.222;-122.892;2023-09-19T04:50:19;4.88;;;1.80;;
80854;SDS011;70272;49.222;-122.892;2023-09-19T04:52:49;5.65;;;2.03;;
80854;SDS011;70272;49.222;-122.892;2023-09-19T04:55:16;2.97;;;1.60;;
80854;SDS011;70272;49.222;-122.892;2023-09-19T04:57:44;5.05;;;1.83;;
80854;SDS011;70272;49.222;-122.892;2023-09-19T05:00:15;3.80;;;2.00;;
80854;SDS011;70272;49.222;-122.892;2023-09-19T05:02:43;3.63;;;1.88;;
80854;SDS011;70272;49.222;-122.892;2023-09-19T05:05:09;7.78;;;2.58;;
80854;SDS011;70272;49.222;-122.892;2023-09-19T05:07:42;3.60;;;1.88;;
80854;SDS011;70272;49.222;-122.892;2023-09-19T05:10:09;4.50;;;1.92;;
80854;SDS011;70272;49.222;-122.892;2023-09-19T05:12:37;3.53;;;1.70;;
80854;SDS011;70272;49.222;-122.892;2023-09-19T05:15:03;4.63;;;1.70;;
80854;SDS011;70272;49.222;-122.892;2023-09-19T05:17:32;2.72;;;1.50;;
80854;SDS011;70272;49.222;-122.892;2023-09-19T05:19:59;3.30;;;1.60;;
80854;SDS011;70272;49.222;-122.892;2023-09-19T05:22:31;4.40;;;2.00;;
80854;SDS011;70272;49.222;-122.892;2023-09-19T05:24:58;7.97;;;2.45;;
80854;SDS011;70272;49.222;-122.892;2023-09-19T05:27:24;4.32;;;2.00;;
80854;SDS011;70272;49.222;-122.892;2023-09-19T05:29:51;3.30;;;1.70;;
80854;SDS011;70272;49.222;-122.892;2023-09-19T05:32:18;4.70;;;1.85;;
80854;SDS011;70272;49.222;-122.892;2023-09-19T05:34:45;5.90;;;1.80;;
80854;SDS011;70272;49.222;-122.892;2023-09-19T05:37:12;3.72;;;1.63;;
80854;SDS011;70272;49.222;-122.892;2023-09-19T05:39:41;4.78;;;1.83;;
80854;SDS011;70272;49.222;-122.892;2023-09-19T05:42:08;5.97;;;1.90;;
80854;SDS011;70272;49.222;-122.892;2023-09-19T05:44:35;3.15;;;1.50;;
80854;SDS011;70272;49.222;-122.892;2023-09-19T05:47:03;3.80;;;2.10;;
80854;SDS011;70272;49.222;-122.892;2023-09-19T05:49:29;4.43;;;1.80;;
80854;SDS011;70272;49.222;-122.892;2023-09-19T05:51:55;5.80;;;1.98;;
80854;SDS011;70272;49.222;-122.892;2023-09-19T05:54:24;4.30;;;1.80;;
80854;SDS011;70272;49.222;-122.892;2023-09-19T05:56:50;3.28;;;1.95;;
80854;SDS011;70272;49.222;-122.892;2023-09-19T05:59:19;3.70;;;2.15;;
80854;SDS011;70272;49.222;-122.892;2023-09-19T06:01:45;4.07;;;1.60;;
80854;SDS011;70272;49.222;-122.892;2023-09-19T06:04:12;4.25;;;1.80;;
80854;SDS011;70272;49.222;-122.892;2023-09-19T06:06:38;5.63;;;1.85;;
80854;SDS011;70272;49.222;-122.892;2023-09-19T06:09:05;3.80;;;1.83;;
80854;SDS011;70272;49.222;-122.892;2023-09-19T06:11:36;4.60;;;2.28;;
80854;SDS011;70272;49.222;-122.892;2023-09-19T06:14:02;5.13;;;2.10;;
80854;SDS011;70272;49.222;-122.892;2023-09-19T06:16:29;3.85;;;1.92;;
80854;SDS011;70272;49.222;-122.892;2023-09-19T06:18:59;4.05;;;2.03;;
80854;SDS011;70272;49.222;-122.892;2023-09-19T06:21:26;5.35;;;1.98;;
80854;SDS011;70272;49.222;-122.892;2023-09-19T06:23:53;5.70;;;2.00;;
80854;SDS011;70272;49.222;-122.892;2023-09-19T06:26:19;3.22;;;1.70;;
80854;SDS011;70272;49.222;-122.892;2023-09-19T06:28:45;3.28;;;1.90;;
80854;SDS011;70272;49.222;-122.892;2023-09-19T06:31:13;4.68;;;1.90;;
80854;SDS011;70272;49.222;-122.892;2023-09-19T06:33:40;5.22;;;1.90;;
80854;SDS011;70272;49.222;-122.892;2023-09-19T06:36:06;5.65;;;1.80;;
80854;SDS011;70272;49.222;-122.892;2023-09-19T06:38:34;5.28;;;1.70;;
80854;SDS011;70272;49.222;-122.892;2023-09-19T06:41:01;9.68;;;2.40;;
80854;SDS011;70272;49.222;-122.892;2023-09-19T06:43:32;4.82;;;2.03;;
80854;SDS011;70272;49.222;-122.892;2023-09-19T06:45:59;3.88;;;1.83;;
80854;SDS011;70272;49.222;-122.892;2023-09-19T06:48:27;4.50;;;1.77;;
80854;SDS011;70272;49.222;-122.892;2023-09-19T06:50:57;3.35;;;1.90;;
80854;SDS011;70272;49.222;-122.892;2023-09-19T06:53:33;3.05;;;1.70;;
80854;SDS011;70272;49.222;-122.892;2023-09-19T06:56:01;4.57;;;1.83;;
80854;SDS011;70272;49.222;-122.892;2023-09-19T06:58:27;5.47;;;2.40;;
80854;SDS011;70272;49.222;-122.892;2023-09-19T07:00:54;3.30;;;1.60;;
80854;SDS011;70272;49.222;-122.892;2023-09-19T07:03:20;3.55;;;1.95;;
80854;SDS011;70272;49.222;-122.892;2023-09-19T07:05:48;5.00;;;2.45;;
80854;SDS011;70272;49.222;-122.892;2023-09-19T07:08:14;6.32;;;2.08;;
80854;SDS011;70272;49.222;-122.892;2023-09-19T07:10:41;5.10;;;2.42;;
80854;SDS011;70272;49.222;-122.892;2023-09-19T07:13:14;4.43;;;1.85;;
80854;SDS011;70272;49.222;-122.892;2023-09-19T07:15:42;2.78;;;1.70;;
80854;SDS011;70272;49.222;-122.892;2023-09-19T07:18:16;6.53;;;1.90;;
80854;SDS011;70272;49.222;-122.892;2023-09-19T07:20:43;3.90;;;1.98;;
80854;SDS011;70272;49.222;-122.892;2023-09-19T07:23:19;2.70;;;1.80;;
80854;SDS011;70272;49.222;-122.892;2023-09-19T07:28:14;2.85;;;1.80;;
80854;SDS011;70272;49.222;-122.892;2023-09-19T07:30:40;5.38;;;1.83;;
80854;SDS011;70272;49.222;-122.892;2023-09-19T07:33:07;5.22;;;2.00;;
80854;SDS011;70272;49.222;-122.892;2023-09-19T07:35:36;4.55;;;2.03;;
80854;SDS011;70272;49.222;-122.892;2023-09-19T07:38:06;4.22;;;2.00;;
80854;SDS011;70272;49.222;-122.892;2023-09-19T07:40:35;3.38;;;1.60;;
80854;SDS011;70272;49.222;-122.892;2023-09-19T07:43:02;4.57;;;1.80;;
80854;SDS011;70272;49.222;-122.892;2023-09-19T07:45:32;6.03;;;2.05;;
80854;SDS011;70272;49.222;-122.892;2023-09-19T07:47:59;5.03;;;1.90;;
80854;SDS011;70272;49.222;-122.892;2023-09-19T07:50:29;3.85;;;1.80;;
80854;SDS011;70272;49.222;-122.892;2023-09-19T07:52:56;4.28;;;1.48;;
80854;SDS011;70272;49.222;-122.892;2023-09-19T07:55:22;3.25;;;1.50;;
80854;SDS011;70272;49.222;-122.892;2023-09-19T07:57:52;4.32;;;1.60;;
80854;SDS011;70272;49.222;-122.892;2023-09-19T08:00:18;3.85;;;1.92;;
80854;SDS011;70272;49.222;-122.892;2023-09-19T08:02:44;2.55;;;1.27;;
80854;SDS011;70272;49.222;-122.892;2023-09-19T08:05:11;3.70;;;1.30;;
80854;SDS011;70272;49.222;-122.892;2023-09-19T08:07:42;4.00;;;1.48;;
80854;SDS011;70272;49.222;-122.892;2023-09-19T08:10:14;2.55;;;1.88;;
80854;SDS011;70272;49.222;-122.892;2023-09-19T08:12:44;3.08;;;1.75;;
80854;SDS011;70272;49.222;-122.892;2023-09-19T08:15:14;2.78;;;1.67;;
80854;SDS011;70272;49.222;-122.892;2023-09-19T08:17:41;5.70;;;1.65;;
80854;SDS011;70272;49.222;-122.892;2023-09-19T08:20:08;3.90;;;1.80;;
80854;SDS011;70272;49.222;-122.892;2023-09-19T08:22:48;3.08;;;1.60;;
80854;SDS011;70272;49.222;-122.892;2023-09-19T08:25:20;5.50;;;1.63;;
80854;SDS011;70272;49.222;-122.892;2023-09-19T08:27:54;3.17;;;1.45;;
80854;SDS011;70272;49.222;-122.892;2023-09-19T08:30:25;2.92;;;1.63;;
80854;SDS011;70272;49.222;-122.892;2023-09-19T08:33:02;3.85;;;2.10;;
80854;SDS011;70272;49.222;-122.892;2023-09-19T08:35:30;3.40;;;1.42;;
80854;SDS011;70272;49.222;-122.892;2023-09-19T08:37:56;2.10;;;1.30;;
80854;SDS011;70272;49.222;-122.892;2023-09-19T08:40:22;3.10;;;1.48;;
80854;SDS011;70272;49.222;-122.892;2023-09-19T08:42:50;3.72;;;1.40;;
80854;SDS011;70272;49.222;-122.892;2023-09-19T08:45:17;1.60;;;1.38;;
80854;SDS011;70272;49.222;-122.892;2023-09-19T08:47:47;2.60;;;1.35;;
80854;SDS011;70272;49.222;-122.892;2023-09-19T08:50:28;3.78;;;1.60;;
80854;SDS011;70272;49.222;-122.892;2023-09-19T08:52:56;4.03;;;1.50;;
80854;SDS011;70272;49.222;-122.892;2023-09-19T08:55:27;6.25;;;1.73;;
80854;SDS011;70272;49.222;-122.892;2023-09-19T08:58:01;2.53;;;1.45;;
80854;SDS011;70272;49.222;-122.892;2023-09-19T09:00:30;2.47;;;1.48;;
80854;SDS011;70272;49.222;-122.892;2023-09-19T09:02:57;2.83;;;1.35;;
80854;SDS011;70272;49.222;-122.892;2023-09-19T09:05:24;3.15;;;1.65;;
80854;SDS011;70272;49.222;-122.892;2023-09-19T09:07:52;3.83;;;1.70;;
80854;SDS011;70272;49.222;-122.892;2023-09-19T09:10:20;6.50;;;1.85;;
80854;SDS011;70272;49.222;-122.892;2023-09-19T09:12:52;2.90;;;1.70;;
80854;SDS011;70272;49.222;-122.892;2023-09-19T09:15:23;5.75;;;1.60;;
80854;SDS011;70272;49.222;-122.892;2023-09-19T09:17:50;4.55;;;1.70;;
80854;SDS011;70272;49.222;-122.892;2023-09-19T09:20:20;4.82;;;1.50;;
80854;SDS011;70272;49.222;-122.892;2023-09-19T09:22:52;4.28;;;1.77;;
80854;SDS011;70272;49.222;-122.892;2023-09-19T09:25:19;4.80;;;1.70;;
80854;SDS011;70272;49.222;-122.892;2023-09-19T09:28:01;5.65;;;1.88;;
80854;SDS011;70272;49.222;-122.892;2023-09-19T09:30:34;3.85;;;1.80;;
80854;SDS011;70272;49.222;-122.892;2023-09-19T09:33:09;3.88;;;1.40;;
80854;SDS011;70272;49.222;-122.892;2023-09-19T09:36:00;5.07;;;1.70;;
80854;SDS011;70272;49.222;-122.892;2023-09-19T09:38:28;4.38;;;1.45;;
80854;SDS011;70272;49.222;-122.892;2023-09-19T09:40:59;3.83;;;1.40;;
80854;SDS011;70272;49.222;-122.892;2023-09-19T09:43:36;4.00;;;1.50;;
80854;SDS011;70272;49.222;-122.892;2023-09-19T09:46:14;3.13;;;1.60;;
80854;SDS011;70272;49.222;-122.892;2023-09-19T09:48:57;3.20;;;1.70;;
80854;SDS011;70272;49.222;-122.892;2023-09-19T09:51:44;7.13;;;2.08;;
80854;SDS011;70272;49.222;-122.892;2023-09-19T09:54:38;4.13;;;1.80;;
80854;SDS011;70272;49.222;-122.892;2023-09-19T09:57:07;2.20;;;1.50;;
80854;SDS011;70272;49.222;-122.892;2023-09-19T10:02:26;6.45;;;2.13;;
80854;SDS011;70272;49.222;-122.892;2023-09-19T10:05:10;3.55;;;1.70;;
80854;SDS011;70272;49.222;-122.892;2023-09-19T10:07:54;5.78;;;1.67;;
80854;SDS011;70272;49.222;-122.892;2023-09-19T10:13:24;6.05;;;1.70;;
80854;SDS011;70272;49.222;-122.892;2023-09-19T10:15:52;3.58;;;1.70;;
80854;SDS011;70272;49.222;-122.892;2023-09-19T10:18:21;3.92;;;1.52;;
80854;SDS011;70272;49.222;-122.892;2023-09-19T10:20:48;4.28;;;1.63;;
80854;SDS011;70272;49.222;-122.892;2023-09-19T10:23:19;2.78;;;1.63;;
80854;SDS011;70272;49.222;-122.892;2023-09-19T10:25:49;4.03;;;1.60;;
80854;SDS011;70272;49.222;-122.892;2023-09-19T10:28:16;2.75;;;1.63;;
80854;SDS011;70272;49.222;-122.892;2023-09-19T10:30:47;2.40;;;1.67;;
80854;SDS011;70272;49.222;-122.892;2023-09-19T10:33:16;5.00;;;1.60;;
80854;SDS011;70272;49.222;-122.892;2023-09-19T10:35:45;4.32;;;1.60;;
80854;SDS011;70272;49.222;-122.892;2023-09-19T10:38:14;2.83;;;1.60;;
80854;SDS011;70272;49.222;-122.892;2023-09-19T10:40:44;4.22;;;1.52;;
80854;SDS011;70272;49.222;-122.892;2023-09-19T10:43:17;2.95;;;1.63;;
80854;SDS011;70272;49.222;-122.892;2023-09-19T10:45:46;3.15;;;1.67;;
80854;SDS011;70272;49.222;-122.892;2023-09-19T10:48:19;3.40;;;1.70;;
80854;SDS011;70272;49.222;-122.892;2023-09-19T10:50:46;3.45;;;1.90;;
80854;SDS011;70272;49.222;-122.892;2023-09-19T10:53:24;3.13;;;1.42;;
80854;SDS011;70272;49.222;-122.892;2023-09-19T10:55:56;5.85;;;1.90;;
80854;SDS011;70272;49.222;-122.892;2023-09-19T10:58:25;4.97;;;2.08;;
80854;SDS011;70272;49.222;-122.892;2023-09-19T11:00:55;5.53;;;1.60;;
80854;SDS011;70272;49.222;-122.892;2023-09-19T11:03:26;5.35;;;1.88;;
80854;SDS011;70272;49.222;-122.892;2023-09-19T11:06:03;3.70;;;1.70;;
80854;SDS011;70272;49.222;-122.892;2023-09-19T11:08:51;5.80;;;1.70;;
80854;SDS011;70272;49.222;-122.892;2023-09-19T11:14:29;5.75;;;2.13;;
80854;SDS011;70272;49.222;-122.892;2023-09-19T11:22:26;3.90;;;1.77;;
80854;SDS011;70272;49.222;-122.892;2023-09-19T11:30:42;3.58;;;1.40;;
80854;SDS011;70272;49.222;-122.892;2023-09-19T11:33:22;2.67;;;1.35;;
80854;SDS011;70272;49.222;-122.892;2023-09-19T11:36:07;3.75;;;1.85;;
80854;SDS011;70272;49.222;-122.892;2023-09-19T11:41:56;6.57;;;2.15;;
80854;SDS011;70272;49.222;-122.892;2023-09-19T11:49:25;4.53;;;2.13;;
80854;SDS011;70272;49.222;-122.892;2023-09-19T11:51:57;3.88;;;1.85;;
80854;SDS011;70272;49.222;-122.892;2023-09-19T11:54:26;4.55;;;2.10;;
80854;SDS011;70272;49.222;-122.892;2023-09-19T11:56:57;2.83;;;1.67;;
80854;SDS011;70272;49.222;-122.892;2023-09-19T11:59:25;5.47;;;1.90;;
80854;SDS011;70272;49.222;-122.892;2023-09-19T12:01:57;8.32;;;1.85;;
80854;SDS011;70272;49.222;-122.892;2023-09-19T12:04:45;3.60;;;1.77;;
80854;SDS011;70272;49.222;-122.892;2023-09-19T12:07:14;2.30;;;1.50;;
80854;SDS011;70272;49.222;-122.892;2023-09-19T12:10:03;5.07;;;2.15;;
80854;SDS011;70272;49.222;-122.892;2023-09-19T12:12:31;4.47;;;1.83;;
80854;SDS011;70272;49.222;-122.892;2023-09-19T12:14:58;2.67;;;1.50;;
80854;SDS011;70272;49.222;-122.892;2023-09-19T12:17:37;4.70;;;1.60;;
80854;SDS011;70272;49.222;-122.892;2023-09-19T12:20:09;5.13;;;2.08;;
80854;SDS011;70272;49.222;-122.892;2023-09-19T12:22:42;4.43;;;1.60;;
80854;SDS011;70272;49.222;-122.892;2023-09-19T12:25:25;4.15;;;1.70;;
80854;SDS011;70272;49.222;-122.892;2023-09-19T12:27:52;6.03;;;1.92;;
80854;SDS011;70272;49.222;-122.892;2023-09-19T12:30:21;3.80;;;1.92;;
80854;SDS011;70272;49.222;-122.892;2023-09-19T12:32:53;4.55;;;1.95;;
80854;SDS011;70272;49.222;-122.892;2023-09-19T12:35:30;5.68;;;1.70;;
80854;SDS011;70272;49.222;-122.892;2023-09-19T12:38:00;3.67;;;1.77;;
80854;SDS011;70272;49.222;-122.892;2023-09-19T12:40:26;4.43;;;1.92;;
80854;SDS011;70272;49.222;-122.892;2023-09-19T12:42:58;3.30;;;1.65;;
80854;SDS011;70272;49.222;-122.892;2023-09-19T12:45:26;5.40;;;1.75;;
80854;SDS011;70272;49.222;-122.892;2023-09-19T12:51:03;6.40;;;2.63;;
80854;SDS011;70272;49.222;-122.892;2023-09-19T12:53:42;4.35;;;2.15;;
80854;SDS011;70272;49.222;-122.892;2023-09-19T12:56:11;5.53;;;1.95;;
80854;SDS011;70272;49.222;-122.892;2023-09-19T12:58:54;5.07;;;2.95;;
80854;SDS011;70272;49.222;-122.892;2023-09-19T13:01:22;3.45;;;1.80;;
80854;SDS011;70272;49.222;-122.892;2023-09-19T13:06:51;6.10;;;2.38;;
80854;SDS011;70272;49.222;-122.892;2023-09-19T13:09:18;7.40;;;2.42;;
80854;SDS011;70272;49.222;-122.892;2023-09-19T13:11:46;9.10;;;2.42;;
80854;SDS011;70272;49.222;-122.892;2023-09-19T13:14:14;16.75;;;9.13;;
80854;SDS011;70272;49.222;-122.892;2023-09-19T13:19:37;10.35;;;7.40;;
80854;SDS011;70272;49.222;-122.892;2023-09-19T13:25:07;9.27;;;3.72;;
80854;SDS011;70272;49.222;-122.892;2023-09-19T13:27:39;15.77;;;12.60;;
80854;SDS011;70272;49.222;-122.892;2023-09-19T13:30:10;12.23;;;9.75;;
80854;SDS011;70272;49.222;-122.892;2023-09-19T13:32:37;48.17;;;43.65;;
80854;SDS011;70272;49.222;-122.892;2023-09-19T13:35:06;15.63;;;14.10;;
80854;SDS011;70272;49.222;-122.892;2023-09-19T13:37:36;45.65;;;41.20;;
80854;SDS011;70272;49.222;-122.892;2023-09-19T13:40:08;80.07;;;73.40;;
80854;SDS011;70272;49.222;-122.892;2023-09-19T13:42:36;41.75;;;38.03;;
80854;SDS011;70272;49.222;-122.892;2023-09-19T13:45:02;22.08;;;20.13;;
80854;SDS011;70272;49.222;-122.892;2023-09-19T13:47:32;16.30;;;13.45;;
80854;SDS011;70272;49.222;-122.892;2023-09-19T13:50:03;8.15;;;3.63;;
80854;SDS011;70272;49.222;-122.892;2023-09-19T13:52:30;8.57;;;5.85;;
80854;SDS011;70272;49.222;-122.892;2023-09-19T13:54:57;16.63;;;13.20;;
80854;SDS011;70272;49.222;-122.892;2023-09-19T13:57:25;11.55;;;7.85;;
80854;SDS011;70272;49.222;-122.892;2023-09-19T13:59:55;15.65;;;9.68;;
80854;SDS011;70272;49.222;-122.892;2023-09-19T14:02:22;7.82;;;3.03;;
80854;SDS011;70272;49.222;-122.892;2023-09-19T14:04:49;7.20;;;4.18;;
80854;SDS011;70272;49.222;-122.892;2023-09-19T14:07:15;5.38;;;3.20;;
80854;SDS011;70272;49.222;-122.892;2023-09-19T14:09:43;4.70;;;2.78;;
80854;SDS011;70272;49.222;-122.892;2023-09-19T14:12:10;8.95;;;8.05;;
80854;SDS011;70272;49.222;-122.892;2023-09-19T14:14:37;9.93;;;3.97;;
80854;SDS011;70272;49.222;-122.892;2023-09-19T14:17:04;8.13;;;3.35;;
80854;SDS011;70272;49.222;-122.892;2023-09-19T14:19:32;6.97;;;3.28;;
80854;SDS011;70272;49.222;-122.892;2023-09-19T14:22:00;7.10;;;3.45;;
80854;SDS011;70272;49.222;-122.892;2023-09-19T14:24:33;5.80;;;2.78;;
80854;SDS011;70272;49.222;-122.892;2023-09-19T14:27:00;3.85;;;2.30;;
80854;SDS011;70272;49.222;-122.892;2023-09-19T14:29:26;4.38;;;2.35;;
80854;SDS011;70272;49.222;-122.892;2023-09-19T14:31:53;5.95;;;2.15;;
80854;SDS011;70272;49.222;-122.892;2023-09-19T14:34:20;5.15;;;3.28;;
80854;SDS011;70272;49.222;-122.892;2023-09-19T14:36:46;5.00;;;2.45;;
80854;SDS011;70272;49.222;-122.892;2023-09-19T14:39:14;8.82;;;6.82;;
80854;SDS011;70272;49.222;-122.892;2023-09-19T14:41:40;6.05;;;3.42;;
80854;SDS011;70272;49.222;-122.892;2023-09-19T14:44:06;5.38;;;2.33;;
80854;SDS011;70272;49.222;-122.892;2023-09-19T14:46:35;4.05;;;1.98;;
80854;SDS011;70272;49.222;-122.892;2023-09-19T14:49:01;4.40;;;3.85;;
80854;SDS011;70272;49.222;-122.892;2023-09-19T14:51:30;6.40;;;2.60;;
80854;SDS011;70272;49.222;-122.892;2023-09-19T14:53:56;6.93;;;3.17;;
80854;SDS011;70272;49.222;-122.892;2023-09-19T14:56:23;7.15;;;3.33;;
80854;SDS011;70272;49.222;-122.892;2023-09-19T14:58:51;6.70;;;2.55;;
80854;SDS011;70272;49.222;-122.892;2023-09-19T15:01:17;5.43;;;2.83;;
80854;SDS011;70272;49.222;-122.892;2023-09-19T15:03:43;6.88;;;3.00;;
80854;SDS011;70272;49.222;-122.892;2023-09-19T15:06:11;6.03;;;2.53;;
80854;SDS011;70272;49.222;-122.892;2023-09-19T15:08:43;4.22;;;2.50;;
80854;SDS011;70272;49.222;-122.892;2023-09-19T15:11:14;10.18;;;3.60;;
80854;SDS011;70272;49.222;-122.892;2023-09-19T15:13:42;5.40;;;3.05;;
80854;SDS011;70272;49.222;-122.892;2023-09-19T15:16:12;8.98;;;4.40;;
80854;SDS011;70272;49.222;-122.892;2023-09-19T15:18:40;13.82;;;12.38;;
80854;SDS011;70272;49.222;-122.892;2023-09-19T15:21:08;8.43;;;5.50;;
80854;SDS011;70272;49.222;-122.892;2023-09-19T15:23:36;12.23;;;10.98;;
80854;SDS011;70272;49.222;-122.892;2023-09-19T15:26:03;23.75;;;21.48;;